Time;durP1;ratioP1;P1;durP2;ratioP2;P2;SDS_P1;SDS_P2;PMS_P1;PMS_P2;Temp;Humidity;BMP_temperature;BMP_pressure;BME280_temperature;BME280_humidity;BME280_pressure;Samples;Min_cycle;Max_cycle;Signal;HPM_P1;HPM_P2
2021/10/16 00:01:56;;;;;;;;;13.50;13.50;;;;;16.01;62.60;101717.69;6277907;22;45256;-64
2021/10/16 00:04:21;;;;;;;;;15.75;15.50;;;;;16.02;62.59;101721.25;6277993;22;45291;-64
2021/10/16 00:06:46;;;;;;;;;12.00;8.75;;;;;15.97;62.51;101709.78;6278507;22;45224;-64
2021/10/16 00:09:12;;;;;;;;;11.00;10.25;;;;;15.99;62.53;101714.19;6277672;22;45438;-64
2021/10/16 00:11:37;;;;;;;;;13.75;13.75;;;;;15.95;62.53;101715.22;6278426;22;45248;-64
2021/10/16 00:14:03;;;;;;;;;9.00;8.25;;;;;15.97;62.39;101702.59;6278237;22;45259;-64
2021/10/16 00:16:29;;;;;;;;;13.50;10.75;;;;;15.94;62.35;101708.09;6249827;22;45352;-64
2021/10/16 00:18:54;;;;;;;;;11.50;10.75;;;;;15.96;62.23;101710.75;6279005;22;45939;-64
2021/10/16 00:21:20;;;;;;;;;10.00;10.00;;;;;15.94;62.20;101702.72;6251091;22;46091;-64
2021/10/16 00:23:48;;;;;;;;;13.75;12.75;;;;;15.89;62.15;101705.59;6278943;22;45176;-64
2021/10/16 00:26:15;;;;;;;;;8.75;8.75;;;;;15.86;62.10;101708.41;6279719;22;45133;-64
2021/10/16 00:28:40;;;;;;;;;12.50;11.50;;;;;15.87;62.21;101712.84;6251537;22;46209;-64
2021/10/16 00:31:06;;;;;;;;;9.25;9.25;;;;;15.85;61.89;101714.69;6278992;22;45315;-64
2021/10/16 00:33:31;;;;;;;;;7.25;7.25;;;;;15.79;61.79;101706.03;6279163;22;45275;-64
2021/10/16 00:35:58;;;;;;;;;14.50;13.25;;;;;15.81;62.07;101714.91;6279324;22;45349;-64
2021/10/16 00:38:23;;;;;;;;;14.00;14.00;;;;;15.80;61.94;101716.69;6251374;22;46123;-64
2021/10/16 00:40:48;;;;;;;;;8.25;7.75;;;;;15.75;61.74;101710.59;6279609;22;45292;-64
2021/10/16 00:43:14;;;;;;;;;9.25;8.25;;;;;15.77;61.97;101716.84;6279475;22;45266;-64
2021/10/16 00:45:39;;;;;;;;;11.75;11.00;;;;;15.74;62.07;101711.53;6279289;22;45311;-64
2021/10/16 00:48:04;;;;;;;;;12.50;10.00;;;;;15.74;62.13;101715.09;6279191;22;45275;-64
2021/10/16 00:50:31;;;;;;;;;10.75;10.75;;;;;15.72;61.89;101711.59;6279348;22;45199;-64
2021/10/16 00:52:56;;;;;;;;;11.00;9.00;;;;;15.70;61.88;101708.09;6277885;22;45403;-64
2021/10/16 00:55:23;;;;;;;;;11.75;10.00;;;;;15.67;61.48;101710.91;6279397;22;45163;-64
2021/10/16 00:57:49;;;;;;;;;11.00;10.00;;;;;15.61;61.48;101721.88;6278960;22;46181;-64
2021/10/16 01:00:18;;;;;;;;;9.75;8.00;;;;;15.52;61.58;101711.50;6251443;22;45197;-64
2021/10/16 01:02:43;;;;;;;;;8.00;8.00;;;;;15.47;61.76;101724.22;6278853;22;45264;-64
2021/10/16 01:05:10;;;;;;;;;10.75;9.75;;;;;15.45;62.03;101713.53;6251304;22;45480;-64
2021/10/16 01:07:39;;;;;;;;;8.00;8.00;;;;;15.44;61.89;101713.59;6251484;22;47777;-64
2021/10/16 01:10:08;;;;;;;;;12.00;10.50;;;;;15.45;61.71;101718.91;6279094;22;45102;-64
2021/10/16 01:12:35;;;;;;;;;9.00;9.00;;;;;15.42;62.06;101716.34;6279228;22;45275;-64
2021/10/16 01:15:03;;;;;;;;;9.25;9.25;;;;;15.40;62.15;101710.09;6279136;22;45410;-64
2021/10/16 01:17:34;;;;;;;;;12.00;11.75;;;;;15.32;61.99;101702.34;6250599;22;47333;-64
2021/10/16 01:20:20;;;;;;;;;10.00;9.50;;;;;15.33;62.15;101704.06;6278814;22;45627;-64
2021/10/16 01:22:49;;;;;;;;;10.75;10.25;;;;;15.38;62.16;101709.28;6250435;22;45476;-64
2021/10/16 01:25:19;;;;;;;;;9.75;9.75;;;;;15.21;61.84;101674.09;6279167;22;45223;-64
2021/10/16 01:27:46;;;;;;;;;8.75;7.75;;;;;15.34;62.05;101704.97;6279104;22;46349;-64
2021/10/16 01:30:14;;;;;;;;;12.75;10.75;;;;;15.12;61.96;101670.81;6279183;22;45575;-64
2021/10/16 01:32:41;;;;;;;;;10.75;10.75;;;;;15.31;61.93;101699.72;6278524;22;45180;-64
2021/10/16 01:35:08;;;;;;;;;9.75;9.50;;;;;15.32;61.85;101705.03;6251022;22;45420;-64
2021/10/16 01:37:37;;;;;;;;;9.50;9.25;;;;;15.08;61.94;101660.22;6251445;22;48342;-64
2021/10/16 01:40:03;;;;;;;;;9.50;9.50;;;;;15.06;62.08;101657.56;6251253;22;45425;-64
2021/10/16 01:42:29;;;;;;;;;8.25;8.25;;;;;15.17;61.97;101679.56;6278474;22;45307;-64
2021/10/16 01:44:54;;;;;;;;;10.25;9.00;;;;;15.02;62.05;101661.31;6278774;22;45086;-64
2021/10/16 01:47:20;;;;;;;;;12.25;10.50;;;;;15.00;62.00;101647.03;6278885;22;45299;-64
2021/10/16 01:49:45;;;;;;;;;11.00;10.00;;;;;15.01;61.82;101662.25;6278927;22;45152;-64
2021/10/16 01:52:10;;;;;;;;;10.75;10.75;;;;;14.91;62.00;101644.69;6278201;22;45716;-64
2021/10/16 01:54:36;;;;;;;;;11.50;9.00;;;;;14.94;61.83;101647.28;6250472;22;45537;-64
2021/10/16 01:57:01;;;;;;;;;13.00;11.50;;;;;15.16;61.99;101685.88;6278711;22;46173;-64
2021/10/16 01:59:27;;;;;;;;;10.00;9.00;;;;;14.96;61.97;101662.41;6278818;22;45431;-64
2021/10/16 02:01:53;;;;;;;;;8.00;7.00;;;;;14.99;61.73;101672.19;6278829;22;45425;-64
2021/10/16 02:04:19;;;;;;;;;11.25;10.00;;;;;15.06;61.92;101679.09;6278806;22;45306;-64
2021/10/16 02:06:45;;;;;;;;;8.50;8.00;;;;;14.97;62.29;101671.38;6250835;22;46503;-64
2021/10/16 02:09:11;;;;;;;;;9.50;9.00;;;;;14.81;62.27;101641.44;6278428;22;45484;-64
2021/10/16 02:11:36;;;;;;;;;10.00;10.00;;;;;14.93;61.98;101667.88;6278861;22;45110;-64
2021/10/16 02:14:04;;;;;;;;;8.00;8.00;;;;;14.93;62.17;101662.50;6278336;22;45090;-64
2021/10/16 02:16:31;;;;;;;;;8.75;8.75;;;;;15.01;62.15;101675.69;6278442;22;46414;-64
2021/10/16 02:18:57;;;;;;;;;8.75;8.00;;;;;14.86;61.96;101641.28;6251180;22;45335;-64
2021/10/16 02:21:23;;;;;;;;;9.00;7.75;;;;;14.83;61.93;101647.63;6250682;22;45312;-64
2021/10/16 02:23:49;;;;;;;;;8.00;8.00;;;;;14.84;62.21;101649.41;6250521;22;45461;-64
2021/10/16 02:26:14;;;;;;;;;10.75;8.75;;;;;14.95;62.52;101666.03;6278664;22;46226;-64
2021/10/16 02:28:39;;;;;;;;;11.50;11.50;;;;;14.99;62.23;101675.72;6251120;22;45405;-64
2021/10/16 02:31:05;;;;;;;;;12.00;11.00;;;;;14.74;62.11;101632.72;6278729;22;45798;-64
2021/10/16 02:33:30;;;;;;;;;12.50;12.50;;;;;14.82;62.10;101648.59;6278676;22;45446;-64
2021/10/16 02:35:56;;;;;;;;;14.75;12.75;;;;;14.79;62.35;101643.31;6278554;22;45205;-64
2021/10/16 02:38:22;;;;;;;;;12.50;12.50;;;;;14.79;62.05;101644.19;6278555;22;45244;-64
2021/10/16 02:40:47;;;;;;;;;14.25;12.75;;;;;14.75;61.82;101633.59;6250531;22;45257;-64
2021/10/16 02:43:31;;;;;;;;;19.00;17.50;;;;;14.82;61.95;101665.59;6278517;22;45143;-64
2021/10/16 02:45:56;;;;;;;;;22.50;18.00;;;;;14.80;62.17;101659.41;6278416;22;46247;-64
2021/10/16 02:48:22;;;;;;;;;27.75;23.00;;;;;14.82;62.55;101665.59;6250881;22;45115;-64
2021/10/16 02:50:47;;;;;;;;;18.50;17.00;;;;;14.64;62.15;101640.22;6250116;22;45538;-64
2021/10/16 02:53:13;;;;;;;;;16.50;15.25;;;;;14.58;62.29;101632.38;6250366;22;45213;-64
2021/10/16 02:55:38;;;;;;;;;16.00;15.00;;;;;14.64;62.05;101634.00;6250516;22;47988;-64
2021/10/16 02:58:04;;;;;;;;;16.25;14.25;;;;;14.56;61.98;101633.34;6278679;22;45186;-64
2021/10/16 03:00:29;;;;;;;;;18.75;13.50;;;;;14.75;61.93;101663.16;6278484;22;45148;-64
2021/10/16 03:02:54;;;;;;;;;18.25;10.25;;;;;14.50;62.44;101631.75;6278449;22;45376;-64
2021/10/16 03:05:20;;;;;;;;;9.25;8.25;;;;;14.47;61.95;101629.19;6278610;22;45498;-64
2021/10/16 03:07:45;;;;;;;;;14.00;10.50;;;;;14.62;61.95;101652.84;6250490;22;45257;-64
2021/10/16 03:10:11;;;;;;;;;11.25;10.75;;;;;14.71;62.17;101659.72;6250778;22;45434;-64
2021/10/16 03:12:36;;;;;;;;;8.75;7.50;;;;;14.43;62.16;101614.06;6278270;22;45509;-64
2021/10/16 03:15:02;;;;;;;;;11.25;10.00;;;;;14.66;62.11;101656.31;6278765;22;45203;-64
2021/10/16 03:17:27;;;;;;;;;14.50;12.25;;;;;14.62;62.05;101657.34;6250439;22;45413;-64
2021/10/16 03:19:53;;;;;;;;;16.25;12.25;;;;;14.51;61.95;101641.56;6278859;22;45342;-64
2021/10/16 03:22:18;;;;;;;;;10.50;10.00;;;;;14.35;62.20;101618.84;6277411;22;45433;-64
2021/10/16 03:24:44;;;;;;;;;7.75;7.75;;;;;14.43;61.65;101630.19;6278352;22;45310;-64
2021/10/16 03:27:09;;;;;;;;;10.25;10.25;;;;;14.46;61.86;101633.66;6278501;22;45295;-64
2021/10/16 03:29:35;;;;;;;;;15.50;13.50;;;;;14.24;61.81;101605.78;6278331;22;45595;-64
2021/10/16 03:32:00;;;;;;;;;12.00;11.25;;;;;14.33;62.12;101624.25;6278089;22;45488;-64
2021/10/16 03:34:27;;;;;;;;;13.25;12.25;;;;;14.49;61.85;101656.00;6278365;22;46302;-64
2021/10/16 03:36:53;;;;;;;;;12.00;12.00;;;;;14.32;61.89;101627.03;6277194;22;45176;-64
2021/10/16 03:39:19;;;;;;;;;11.75;11.75;;;;;14.41;62.02;101641.00;6250404;22;45286;-64
2021/10/16 03:41:44;;;;;;;;;13.25;11.25;;;;;14.28;61.91;101610.09;6250348;22;45354;-64
2021/10/16 03:44:10;;;;;;;;;11.75;10.00;;;;;14.40;62.12;101636.56;6250405;22;47418;-64
2021/10/16 03:46:36;;;;;;;;;13.00;11.25;;;;;14.53;61.90;101650.44;6278009;22;45307;-64
2021/10/16 03:49:01;;;;;;;;;14.00;13.00;;;;;14.35;61.61;101617.06;6278840;22;45350;-64
2021/10/16 03:51:26;;;;;;;;;15.50;15.50;;;;;14.34;62.19;101617.09;6278652;22;45507;-64
2021/10/16 03:53:52;;;;;;;;;12.50;12.50;;;;;14.53;62.02;101650.44;6250864;22;47404;-64
2021/10/16 03:56:17;;;;;;;;;15.25;15.25;;;;;14.31;61.97;101612.69;6278646;22;45342;-64
2021/10/16 03:58:43;;;;;;;;;15.25;13.25;;;;;14.54;61.99;101659.41;6278675;22;45830;-64
2021/10/16 04:01:11;;;;;;;;;15.00;14.50;;;;;14.55;61.69;101658.44;6278786;22;45339;-64
2021/10/16 04:03:37;;;;;;;;;14.75;14.00;;;;;14.35;61.85;101629.56;6278981;22;45682;-64
2021/10/16 04:06:02;;;;;;;;;12.00;10.50;;;;;14.48;62.02;101651.53;6279117;22;45188;-64
2021/10/16 04:08:28;;;;;;;;;10.50;10.00;;;;;14.31;61.68;101618.06;6279404;22;45327;-64
2021/10/16 04:10:53;;;;;;;;;10.00;10.00;;;;;14.30;62.05;101618.13;6278700;22;45300;-64
2021/10/16 04:13:19;;;;;;;;;8.50;6.75;;;;;14.25;61.47;101607.56;6279146;22;45508;-64
2021/10/16 04:15:44;;;;;;;;;7.00;7.00;;;;;14.31;61.70;101626.13;6279137;22;45117;-64
2021/10/16 04:18:09;;;;;;;;;10.25;9.50;;;;;14.50;62.01;101657.72;6251916;22;45129;-64
2021/10/16 04:20:35;;;;;;;;;12.25;12.00;;;;;14.44;61.63;101648.09;6251660;22;45170;-64
2021/10/16 04:23:00;;;;;;;;;10.25;9.75;;;;;14.23;61.94;101623.72;6277947;22;45244;-64
2021/10/16 04:25:26;;;;;;;;;8.75;8.75;;;;;14.24;61.69;101625.44;6251033;22;45419;-64
2021/10/16 04:27:52;;;;;;;;;12.00;10.50;;;;;14.46;61.90;101665.03;6279598;22;45267;-64
2021/10/16 04:30:17;;;;;;;;;11.00;9.50;;;;;14.30;61.42;101636.91;6279264;22;45180;-64
2021/10/16 04:32:43;;;;;;;;;10.50;10.50;;;;;14.24;61.64;101632.63;6278901;22;45448;-64
2021/10/16 04:35:09;;;;;;;;;10.75;10.25;;;;;14.20;61.89;101621.13;6279216;22;45319;-64
2021/10/16 04:37:36;;;;;;;;;9.50;8.75;;;;;14.45;61.86;101669.53;6251634;22;45335;-64
2021/10/16 04:40:21;;;;;;;;;10.00;8.25;;;;;14.14;61.55;101625.81;6251648;22;45290;-64
2021/10/16 04:42:51;;;;;;;;;11.00;9.00;;;;;14.17;61.46;101629.28;6279008;22;46071;-64
2021/10/16 04:45:17;;;;;;;;;11.50;9.00;;;;;14.35;61.66;101659.13;6278997;22;45809;-64
2021/10/16 04:47:43;;;;;;;;;9.00;9.00;;;;;14.29;62.07;101651.28;6277567;22;45348;-64
2021/10/16 04:50:10;;;;;;;;;10.00;8.75;;;;;14.36;61.87;101667.13;6279345;22;45351;-64
2021/10/16 04:52:36;;;;;;;;;11.00;9.50;;;;;14.27;62.05;101654.03;6278099;22;45264;-64
2021/10/16 04:55:02;;;;;;;;;12.50;11.25;;;;;14.38;62.12;101667.09;6279131;22;45451;-64
2021/10/16 04:57:27;;;;;;;;;13.00;13.00;;;;;14.13;62.13;101634.78;6251254;22;45260;-64
2021/10/16 04:59:53;;;;;;;;;10.00;10.00;;;;;14.18;62.04;101644.47;6279194;22;45224;-64
2021/10/16 05:02:18;;;;;;;;;14.25;12.75;;;;;14.37;62.01;101674.28;6278509;22;45303;-64
2021/10/16 05:04:43;;;;;;;;;8.50;7.25;;;;;14.41;61.86;101680.41;6278884;22;45137;-64
2021/10/16 05:07:09;;;;;;;;;13.25;11.75;;;;;14.48;62.18;101683.78;6279461;22;45236;-63
2021/10/16 05:09:34;;;;;;;;;13.50;12.75;;;;;14.21;62.23;101636.28;6275845;22;45306;-64
2021/10/16 05:12:00;;;;;;;;;12.75;10.50;;;;;14.48;62.37;101671.22;6279255;22;45450;-64
2021/10/16 05:14:26;;;;;;;;;10.75;9.25;;;;;14.46;62.21;101670.38;6279090;22;45331;-64
2021/10/16 05:16:51;;;;;;;;;12.50;9.25;;;;;14.34;62.43;101647.50;6251400;22;45284;-64
2021/10/16 05:19:16;;;;;;;;;11.50;10.50;;;;;14.60;62.04;101694.13;6251068;22;45609;-64
2021/10/16 05:21:42;;;;;;;;;15.25;11.25;;;;;14.39;62.28;101664.34;6251754;22;45339;-64
2021/10/16 05:24:07;;;;;;;;;19.00;14.25;;;;;14.36;62.44;101664.44;6250089;22;45311;-64
2021/10/16 05:26:33;;;;;;;;;9.25;6.75;;;;;14.55;61.85;101690.69;6250326;22;45423;-64
2021/10/16 05:28:59;;;;;;;;;12.00;12.00;;;;;14.34;61.60;101665.44;6278920;22;45465;-64
2021/10/16 05:31:24;;;;;;;;;10.75;10.75;;;;;14.51;62.00;101697.09;6278376;22;45350;-64
2021/10/16 05:33:50;;;;;;;;;14.00;11.50;;;;;14.27;61.83;101656.72;6250636;22;45256;-64
2021/10/16 05:36:15;;;;;;;;;10.25;10.00;;;;;14.23;61.60;101647.88;6278842;22;45354;-64
2021/10/16 05:38:41;;;;;;;;;8.50;8.50;;;;;14.42;61.58;101682.19;6251205;22;45482;-64
2021/10/16 05:41:07;;;;;;;;;10.25;8.00;;;;;14.24;61.40;101663.03;6279190;22;45402;-64
2021/10/16 05:43:32;;;;;;;;;9.00;9.00;;;;;14.23;61.58;101664.00;6279102;22;45077;-64
2021/10/16 05:45:59;;;;;;;;;8.00;8.00;;;;;14.30;61.26;101672.72;6279344;22;45198;-64
2021/10/16 05:48:24;;;;;;;;;9.50;8.50;;;;;14.28;61.50;101669.19;6278836;22;45255;-64
2021/10/16 05:50:50;;;;;;;;;10.75;9.00;;;;;14.24;61.63;101659.50;6251073;22;46902;-64
2021/10/16 05:53:15;;;;;;;;;11.25;9.75;;;;;14.16;61.44;101643.63;6277873;22;45266;-64
2021/10/16 05:55:41;;;;;;;;;10.50;10.00;;;;;14.19;61.12;101654.28;6278727;22;45269;-64
2021/10/16 05:58:06;;;;;;;;;8.00;8.00;;;;;14.36;61.33;101685.94;6278770;22;45378;-64
2021/10/16 06:00:32;;;;;;;;;4.75;4.75;;;;;14.42;61.42;101691.13;6278558;22;45331;-64
2021/10/16 06:02:59;;;;;;;;;13.00;9.75;;;;;14.34;61.31;101690.47;6278510;22;45330;-64
2021/10/16 06:05:24;;;;;;;;;9.75;8.25;;;;;14.40;61.29;101695.66;6278812;22;45362;-64
2021/10/16 06:07:50;;;;;;;;;9.00;8.00;;;;;14.24;61.19;101667.56;6278704;22;45336;-64
2021/10/16 06:10:15;;;;;;;;;9.25;9.25;;;;;14.37;61.56;101693.06;6250390;22;47140;-64
2021/10/16 06:12:41;;;;;;;;;10.00;10.00;;;;;14.43;61.27;101700.03;6278192;22;45189;-64
2021/10/16 06:15:07;;;;;;;;;9.75;9.25;;;;;14.18;61.44;101663.28;6277596;22;45233;-64
2021/10/16 06:17:32;;;;;;;;;9.50;8.75;;;;;14.22;61.62;101667.59;6278195;22;45256;-64
2021/10/16 06:19:57;;;;;;;;;8.50;8.50;;;;;14.21;61.39;101664.97;6278543;22;46072;-64
2021/10/16 07:08:56;;;;;;;;;9.00;6.75;;;;;13.97;61.38;101656.78;6297938;22;45069;-66
2021/10/16 07:11:21;;;;;;;;;10.00;8.00;;;;;14.35;61.07;101707.47;6280640;22;48335;-66
2021/10/16 07:13:47;;;;;;;;;8.00;6.00;;;;;14.09;61.00;101669.78;6308870;22;45405;-66
2021/10/16 07:16:12;;;;;;;;;8.25;8.00;;;;;14.24;60.59;101700.63;6305242;22;45365;-66
2021/10/16 07:18:38;;;;;;;;;11.50;9.50;;;;;14.25;60.76;101704.22;6306132;22;45330;-66
2021/10/16 07:21:04;;;;;;;;;10.25;10.25;;;;;14.21;60.87;101695.38;6306704;22;46129;-67
2021/10/16 07:23:30;;;;;;;;;11.75;11.75;;;;;14.26;60.90;101693.41;6309008;22;45398;-66
2021/10/16 07:25:57;;;;;;;;;11.00;11.00;;;;;14.26;61.04;101693.41;6305208;22;45655;-67
2021/10/16 07:28:23;;;;;;;;;10.00;10.00;;;;;14.48;61.07;101727.63;6309258;22;45366;-67
2021/10/16 07:30:49;;;;;;;;;11.00;10.00;;;;;14.41;60.73;101707.28;6305121;22;47314;-67
2021/10/16 07:33:14;;;;;;;;;10.75;9.75;;;;;14.15;60.35;101674.09;6306464;22;45320;-66
2021/10/16 07:35:42;;;;;;;;;8.50;8.50;;;;;14.28;60.20;101704.09;6308410;22;45571;-66
2021/10/16 07:38:07;;;;;;;;;9.50;9.25;;;;;14.31;60.14;101716.56;6309299;22;45469;-66
2021/10/16 07:40:33;;;;;;;;;10.00;8.75;;;;;14.00;60.40;101674.56;6309579;22;45266;-67
2021/10/16 07:42:58;;;;;;;;;7.75;7.25;;;;;14.00;60.33;101671.88;6308768;22;45200;-66
2021/10/16 07:45:27;;;;;;;;;9.00;8.25;;;;;13.99;60.47;101678.22;6298740;22;45455;-66
2021/10/16 07:47:55;;;;;;;;;10.75;10.75;;;;;14.14;60.67;101709.06;6304550;22;45506;-67
2021/10/16 07:50:21;;;;;;;;;8.75;8.50;;;;;14.17;60.25;101717.03;6308602;22;45725;-66
2021/10/16 07:52:47;;;;;;;;;6.00;6.00;;;;;14.14;60.10;101735.91;6306762;22;45634;-67
2021/10/16 07:55:13;;;;;;;;;9.00;8.50;;;;;14.04;60.11;101721.88;6308603;22;45314;-67
2021/10/16 07:57:39;;;;;;;;;8.00;7.50;;;;;14.07;60.25;101745.97;6308198;22;45377;-68
2021/10/16 08:00:07;;;;;;;;;7.50;6.50;;;;;13.87;60.37;101712.53;6309123;22;45972;-67
2021/10/16 08:02:32;;;;;;;;;8.50;8.00;;;;;13.86;60.39;101724.19;6307084;22;45119;-67
2021/10/16 08:04:59;;;;;;;;;7.50;7.00;;;;;13.88;60.95;101729.53;6309163;22;45460;-67
2021/10/16 08:07:25;;;;;;;;;9.00;8.00;;;;;13.82;61.03;101705.56;6308270;22;45397;-67
2021/10/16 08:09:51;;;;;;;;;13.25;9.25;;;;;14.10;60.94;101748.56;6308344;22;46213;-67
2021/10/16 08:12:17;;;;;;;;;17.50;15.50;;;;;13.81;60.92;101687.72;6306814;22;45283;-67
2021/10/16 08:14:42;;;;;;;;;14.00;12.75;;;;;14.00;60.47;101723.78;6309152;22;45232;-67
2021/10/16 08:17:08;;;;;;;;;14.25;14.25;;;;;14.12;60.75;101730.59;6308393;22;45256;-67
2021/10/16 08:19:36;;;;;;;;;14.25;14.25;;;;;14.24;60.67;101751.66;6308201;22;45331;-67
2021/10/16 08:22:01;;;;;;;;;15.50;14.50;;;;;14.04;60.82;101698.59;6308760;22;45279;-67
2021/10/16 08:24:27;;;;;;;;;19.25;17.75;;;;;14.21;60.98;101726.72;6306203;22;45342;-67
2021/10/16 08:26:52;;;;;;;;;13.25;13.00;;;;;14.08;60.72;101727.13;6309132;22;45211;-67
2021/10/16 08:29:20;;;;;;;;;12.25;12.25;;;;;14.11;60.40;101731.50;6308213;22;45371;-67
2021/10/16 08:31:46;;;;;;;;;15.25;13.00;;;;;14.04;60.62;101719.19;6307552;22;45280;-67
2021/10/16 08:34:20;;;;;;;;;15.00;12.00;;;;;14.00;60.40;101696.06;6306329;22;45443;-66
2021/10/16 08:36:46;;;;;;;;;11.00;9.00;;;;;14.08;60.12;101702.06;6304883;22;45823;-66
2021/10/16 08:39:12;;;;;;;;;11.00;10.00;;;;;14.21;60.14;101732.97;6308866;22;46255;-67
2021/10/16 08:41:41;;;;;;;;;10.50;10.50;;;;;14.25;60.50;101734.63;6310443;22;45391;-67
2021/10/16 08:44:24;;;;;;;;;;;;;;;;;;;;;
2021/10/16 08:46:57;;;;;;;;;9.50;9.50;;;;;14.33;60.42;101746.94;6308443;22;72309;-67
2021/10/16 08:49:30;;;;;;;;;11.25;11.00;;;;;14.26;60.40;101724.75;6310066;22;45345;-66
2021/10/16 08:51:55;;;;;;;;;10.25;10.25;;;;;14.50;60.05;101762.50;6308136;22;45193;-67
2021/10/16 08:54:28;;;;;;;;;9.75;8.75;;;;;14.45;59.64;101747.44;6307168;22;45290;-67
2021/10/16 08:56:56;;;;;;;;;11.25;9.25;;;;;14.41;59.93;101740.38;6307211;22;45283;-67
2021/10/16 08:59:22;;;;;;;;;10.50;9.50;;;;;14.37;60.05;101735.19;6308260;22;46189;-66
2021/10/16 09:02:01;;;;;;;;;13.00;11.00;;;;;14.52;59.56;101758.84;6307825;22;45302;-67
2021/10/16 09:04:28;;;;;;;;;10.25;9.00;;;;;14.38;59.86;101737.81;6307841;22;45354;-67
2021/10/16 09:06:53;;;;;;;;;11.00;8.50;;;;;14.32;59.54;101723.72;6308589;22;45334;-67
2021/10/16 09:09:33;;;;;;;;;12.00;12.00;;;;;14.32;59.54;101735.31;6307559;22;45492;-67
2021/10/16 09:12:21;;;;;;;;;15.25;13.00;;;;;14.61;59.71;101758.56;6306045;22;45481;-67
2021/10/16 09:14:52;;;;;;;;;14.25;12.00;;;;;14.62;59.11;101765.72;6332911;22;45310;-67
2021/10/16 09:17:21;;;;;;;;;12.25;12.00;;;;;14.45;59.81;101728.63;6305490;22;46564;-67
2021/10/16 09:19:53;;;;;;;;;10.50;10.50;;;;;14.63;59.25;101759.41;6306176;22;48138;-66
2021/10/16 09:22:21;;;;;;;;;13.75;13.75;;;;;14.66;59.19;101763.78;6308260;22;45329;-67
2021/10/16 09:24:52;;;;;;;;;14.25;13.00;;;;;14.50;59.41;101735.63;6308203;22;45322;-67
2021/10/16 09:27:24;;;;;;;;;14.25;12.75;;;;;14.55;59.57;101736.34;6308351;22;45271;-66
2021/10/16 09:30:02;;;;;;;;;14.50;13.50;;;;;14.63;59.41;101732.53;6306296;22;47470;-66
2021/10/16 09:32:30;;;;;;;;;17.50;17.50;;;;;14.86;59.25;101773.00;6305962;22;45353;-67
2021/10/16 09:35:12;;;;;;;;;24.50;19.25;;;;;14.63;59.24;101719.09;6333045;22;45425;-66
2021/10/16 09:38:02;;;;;;;;;;;;;;;;;;;;;
2021/10/16 09:41:00;;;;;;;;;19.50;16.75;;;;;14.70;58.35;101733.22;6306900;22;74917;-67
2021/10/16 09:43:35;;;;;;;;;13.25;12.50;;;;;14.92;58.92;101772.81;6308312;22;45429;-66
2021/10/16 09:46:15;;;;;;;;;12.50;12.50;;;;;15.01;58.55;101776.03;6305935;22;45609;-67
2021/10/16 09:48:49;;;;;;;;;17.50;17.50;;;;;14.77;58.53;101721.31;6308163;22;45445;-67
2021/10/16 09:51:19;;;;;;;;;12.25;11.00;;;;;14.95;59.08;101744.00;6306203;22;47061;-67
2021/10/16 09:53:50;;;;;;;;;19.25;17.00;;;;;14.87;58.47;101726.34;6305818;22;45425;-67
2021/10/16 09:56:17;;;;;;;;;14.75;13.00;;;;;14.95;58.06;101745.78;6308565;22;45435;-67
2021/10/16 09:59:02;;;;;;;;;14.75;12.75;;;;;15.04;57.77;101741.94;6308228;22;45305;-67
2021/10/16 10:05:59;;;;;;;;;;;;;;;;;;;;;
2021/10/16 10:12:12;;;;;;;;;;;;;;;;;;;;;
2021/10/16 10:21:50;;;;;;;;;14.25;13.75;;;;;15.54;57.78;101742.78;6309594;22;45356;-68
2021/10/16 10:24:26;;;;;;;;;;;;;;;;;;;;;
2021/10/16 10:27:14;;;;;;;;;12.25;12.00;;;;;15.74;57.30;101763.56;6306652;22;75918;-68
2021/10/16 10:30:25;;;;;;;;;;;;;;;;;;;;;
2021/10/16 10:33:35;;;;;;;;;;;;;;;;;;;;;
2021/10/16 10:47:22;;;;;;;;;;;;;;;;;;;;;
2021/10/16 10:53:40;;;;;;;;;7.00;6.75;;;;;16.04;54.93;101714.00;6174496;23;46409;-68
2021/10/16 10:56:24;;;;;;;;;;;;;;;;;;;;;
2021/10/16 10:59:07;;;;;;;;;6.00;5.00;;;;;16.35;55.12;101745.97;6309103;22;68281;-69
2021/10/16 11:02:00;;;;;;;;;;;;;;;;;;;;;
2021/10/16 11:05:08;;;;;;;;;6.75;6.50;;;;;16.37;53.91;101729.72;6303498;22;74106;-67
2021/10/16 11:08:13;;;;;;;;;7.00;6.75;;;;;16.35;54.08;101727.09;6304244;22;45641;-67
2021/10/16 11:11:20;;;;;;;;;7.00;6.00;;;;;16.33;53.96;101714.66;6303885;22;45488;-67
2021/10/16 11:14:40;;;;;;;;;;;;;;;;;;;;;
2021/10/16 11:17:19;;;;;;;;;8.50;8.00;;;;;16.42;53.47;101733.09;6302030;22;75577;-65
2021/10/16 11:20:29;;;;;;;;;;;;;;;;;;;;;
2021/10/16 11:23:16;;;;;;;;;5.00;5.00;;;;;16.44;53.35;101740.22;6299632;22;45472;-67
2021/10/16 11:26:04;;;;;;;;;10.00;8.75;;;;;16.43;53.30;101732.19;6291658;22;45707;-69
2021/10/16 11:28:34;;;;;;;;;10.00;8.00;;;;;16.37;53.40;101714.47;6302059;22;45676;-69
2021/10/16 11:37:44;;;;;;;;;;;;;;;;;;;;;
2021/10/16 11:40:59;;;;;;;;;5.00;5.00;;;;;16.64;52.69;101723.19;6264364;22;75959;-68
2021/10/16 11:43:34;;;;;;;;;4.25;4.25;;;;;16.70;52.29;101732.84;6292655;22;45734;-68
2021/10/16 11:46:00;;;;;;;;;6.75;6.75;;;;;16.58;52.76;101707.28;6301174;22;45450;-69
2021/10/16 11:48:27;;;;;;;;;8.50;7.25;;;;;16.54;52.35;101689.50;6303778;22;45742;-69
2021/10/16 11:51:00;;;;;;;;;4.75;4.75;;;;;16.58;51.57;101685.72;6302021;22;47231;-69
2021/10/16 11:53:44;;;;;;;;;;;;;;;;;;;;;
2021/10/16 11:56:35;;;;;;;;;;;;;;;;;;;;;
2021/10/16 11:59:13;;;;;;;;;6.75;5.00;;;;;16.59;51.32;101673.09;6303051;22;72852;-68
2021/10/16 12:04:39;;;;;;;;;4.50;4.50;;;;;16.60;51.33;101647.91;6304191;22;45859;-69
2021/10/16 12:14:35;;;;;;;;;;;;;;;;;;;;;
2021/10/16 13:41:41;;;;;;;;;;;;;;;;;;;;;
2021/10/16 14:58:20;;;;;;;;;;;;;;;;;;;;;
2021/10/16 16:26:46;;;;;;;;;2.50;2.50;;;;;17.72;45.16;101569.06;6307393;22;45374;-65
2021/10/16 16:29:46;;;;;;;;;3.00;3.00;;;;;17.71;44.91;101567.31;6278155;22;45414;-68
2021/10/16 16:32:11;;;;;;;;;4.00;4.00;;;;;17.49;45.58;101533.28;6279143;22;45239;-67
2021/10/16 16:34:42;;;;;;;;;3.00;3.00;;;;;17.34;45.74;101510.63;6307221;22;45241;-67
2021/10/16 16:37:08;;;;;;;;;3.25;3.25;;;;;17.48;45.50;101542.31;6279140;22;47147;-66
2021/10/16 16:39:34;;;;;;;;;2.50;2.00;;;;;17.49;45.56;101537.78;6279557;22;45678;-66
2021/10/16 16:42:00;;;;;;;;;2.50;2.50;;;;;17.53;45.86;101542.97;6307708;22;45487;-67
2021/10/16 16:44:25;;;;;;;;;3.25;2.75;;;;;17.35;45.99;101514.19;6306834;22;45263;-67
2021/10/16 16:46:50;;;;;;;;;3.25;3.25;;;;;17.57;46.03;101560.78;6279437;22;48617;-67
2021/10/16 16:49:16;;;;;;;;;6.50;4.50;;;;;17.48;46.04;101541.44;6307374;22;45543;-66
2021/10/16 16:51:42;;;;;;;;;5.00;4.75;;;;;17.54;46.18;101554.63;6278579;22;45662;-66
2021/10/16 16:54:09;;;;;;;;;4.50;4.50;;;;;17.55;46.66;101570.75;6307068;22;45478;-68
2021/10/16 17:00:40;;;;;;;;;;;;;;;;;;;;;
2021/10/16 17:04:07;;;;;;;;;;;;;;;;;;;;;
2021/10/16 17:10:46;;;;;;;;;;;;;;;;;;;;;
2021/10/16 17:13:40;;;;;;;;;3.25;2.75;;;;;17.33;46.49;101581.72;6305411;22;72115;-65
2021/10/16 17:16:08;;;;;;;;;3.75;2.75;;;;;17.02;46.87;101531.00;6321779;22;45905;-65
2021/10/16 17:18:47;;;;;;;;;3.00;3.00;;;;;17.33;47.00;101583.53;6340974;22;45154;-65
2021/10/16 17:50:49;;;;;;;;;;;;;;;;;;;;;
2021/10/16 17:53:27;;;;;;;;;12.50;8.25;;;;;16.98;47.12;101608.50;5782360;24;45598;-64
2021/10/16 17:55:51;;;;;;;;;7.00;6.75;;;;;16.80;47.57;101590.44;5887984;23;45602;-64
2021/10/16 17:58:23;;;;;;;;;8.00;6.50;;;;;16.93;47.52;101615.06;5984035;23;45418;-63
2021/10/16 18:00:48;;;;;;;;;7.75;6.50;;;;;16.93;47.58;101625.84;6271992;22;45198;-64
2021/10/16 18:06:53;;;;;;;;;9.50;8.75;;;;;16.59;47.76;101585.06;6286330;22;45277;-64
2021/10/16 18:09:22;;;;;;;;;6.75;6.75;;;;;16.77;47.47;101622.91;6279240;22;45904;-65
2021/10/16 18:12:41;;;;;;;;;;;;;;;;;;;;;
2021/10/16 18:19:49;;;;;;;;;11.75;8.75;;;;;16.72;47.72;101623.09;6206787;22;45764;-68
2021/10/16 18:22:29;;;;;;;;;9.00;9.00;;;;;16.51;47.56;101592.59;6132191;22;45490;-65
2021/10/16 18:25:30;;;;;;;;;;;;;;;;;;;;;